ENSL

Sleipner A Platform Heliport

Norway
METAR ENSL 160950Z 18019KT 5000 OVC007 10/09 Q1026 W08/S4
Observed Flight Rules
Nov-16 @ 09:50 UTC (16 minutes ago) Instrument Flight Rules
Wind Visibility Clouds
180° at 19 knots 5,005 meters
  • Overcast at 700' AGL
Temperatures Readings
Current 10°C / 50°F
Dewpoint 9°C / 48°F
Humidity 94%
Altimeter 30.3" Hg
Pressure 1026 hPa
Elevation 50
METAR ENSL 160950Z 18019KT 5000 OVC007 10/09 Q1026 W08/S4
Observed Flight Rules
Nov-16 @ 09:50 UTC
(16 minutes ago)
IFR
Wind Visibility
180° at 19 knots 5,005 meters
Clouds
  • Overcast at 700' AGL
Temperature Dewpoint
10°C / 50°F 9°C / 48°F
Humidity Altimeter Pressure
94% 30.3" Hg 1026 hPa